createdAt,value
2022-08-01T00:00:44.590Z,101489.09
2022-08-01T00:03:11.649Z,101489.00
2022-08-01T00:05:38.690Z,101491.13
2022-08-01T00:08:05.844Z,101484.75
2022-08-01T00:10:32.969Z,101491.97
2022-08-01T00:13:03.542Z,101492.91
2022-08-01T00:15:30.778Z,101494.91
2022-08-01T00:17:57.816Z,101491.84
2022-08-01T00:20:24.993Z,101494.47
2022-08-01T00:22:52.031Z,101488.59
2022-08-01T00:25:19.043Z,101498.25
2022-08-01T00:27:47.878Z,101493.78
2022-08-01T00:30:15.191Z,101498.97
2022-08-01T00:32:43.777Z,101505.13
2022-08-01T00:35:11.482Z,101492.50
2022-08-01T00:37:38.613Z,101496.00
2022-08-01T00:40:07.230Z,101494.47
2022-08-01T00:42:34.236Z,101501.91
2022-08-01T00:45:01.181Z,101511.69
2022-08-01T00:47:28.164Z,101513.72
2022-08-01T00:49:55.231Z,101508.31
2022-08-01T00:52:22.403Z,101500.81
2022-08-01T00:54:49.624Z,101503.72
2022-08-01T00:57:16.767Z,101506.88
2022-08-01T01:00:07.391Z,101496.34
2022-08-01T01:02:35.866Z,101510.94
2022-08-01T01:05:03.322Z,101501.94
2022-08-01T01:07:49.935Z,101513.63
2022-08-01T01:10:34.114Z,101515.44
2022-08-01T01:13:36.386Z,101504.59
2022-08-01T01:16:19.937Z,101504.69
2022-08-01T01:18:54.342Z,101509.22
2022-08-01T01:21:22.377Z,101509.47
2022-08-01T01:24:32.273Z,101505.84
2022-08-01T01:27:40.471Z,101505.81
2022-08-01T01:30:08.081Z,101494.03
2022-08-01T01:32:42.019Z,101496.75
2022-08-01T01:35:28.031Z,101502.25
2022-08-01T01:38:15.746Z,101505.53
2022-08-01T01:40:44.727Z,101504.72
2022-08-01T01:43:14.089Z,101507.53
2022-08-01T01:45:42.851Z,101504.72
2022-08-01T01:48:13.919Z,101510.00
2022-08-01T01:50:43.304Z,101503.09
2022-08-01T01:53:14.950Z,101517.19
2022-08-01T01:55:49.800Z,101506.47
2022-08-01T01:58:18.515Z,101501.25
2022-08-01T02:00:47.904Z,101500.03
2022-08-01T02:03:20.792Z,101500.22
2022-08-01T02:05:48.569Z,101498.44
2022-08-01T02:08:19.051Z,101496.34
2022-08-01T02:11:07.472Z,101500.97
2022-08-01T02:13:37.677Z,101500.00
2022-08-01T02:16:06.172Z,101493.53
2022-08-01T02:18:34.537Z,101502.41
2022-08-01T02:21:04.207Z,101491.84
2022-08-01T02:23:37.222Z,101503.22
2022-08-01T02:26:14.576Z,101501.59
2022-08-01T02:29:10.954Z,101489.84
2022-08-01T02:31:42.304Z,101493.47
2022-08-01T02:34:14.147Z,101499.91
2022-08-01T02:36:41.557Z,101495.63
2022-08-01T02:39:13.813Z,101502.13
2022-08-01T02:41:48.785Z,101499.28
2022-08-01T02:44:29.669Z,101496.66
2022-08-01T02:47:03.377Z,101494.09
2022-08-01T02:49:34.782Z,101492.28
2022-08-01T02:52:13.034Z,101497.53
2022-08-01T02:54:41.688Z,101492.28
2022-08-01T02:57:13.819Z,101490.69
2022-08-01T02:59:43.430Z,101489.41
2022-08-01T03:02:13.494Z,101492.19
2022-08-01T03:04:42.656Z,101497.63
2022-08-01T03:07:11.925Z,101502.28
2022-08-01T03:09:44.436Z,101498.44
2022-08-01T03:12:20.036Z,101502.84
2022-08-01T03:14:49.456Z,101509.28
2022-08-01T03:17:21.261Z,101509.22
2022-08-01T03:19:50.051Z,101502.22
2022-08-01T03:22:19.539Z,101508.19
2022-08-01T03:24:51.352Z,101502.19
2022-08-01T03:27:22.373Z,101504.91
2022-08-01T03:29:51.869Z,101513.69
2022-08-01T03:32:21.739Z,101512.91
2022-08-01T03:34:48.961Z,101513.09
2022-08-01T03:37:25.645Z,101511.97
2022-08-01T03:40:03.232Z,101510.34
2022-08-01T03:42:42.880Z,101507.75
2022-08-01T03:45:26.512Z,101515.81
2022-08-01T03:48:00.735Z,101513.44
2022-08-01T03:50:29.926Z,101509.78
2022-08-01T03:53:00.110Z,101503.91
2022-08-01T03:55:28.307Z,101504.47
2022-08-01T03:57:56.532Z,101503.50
2022-08-01T04:00:25.276Z,101504.38
2022-08-01T04:02:54.521Z,101504.31
2022-08-01T04:05:21.722Z,101498.69
2022-08-01T04:07:56.980Z,101501.59
2022-08-01T04:10:24.924Z,101505.16
2022-08-01T04:12:53.104Z,101506.31
2022-08-01T04:15:21.300Z,101511.59
2022-08-01T04:17:48.973Z,101508.81
2022-08-01T04:20:16.705Z,101511.81
2022-08-01T04:22:44.091Z,101510.47
2022-08-01T04:25:22.749Z,101509.63
2022-08-01T04:27:53.301Z,101513.97
2022-08-01T04:30:30.933Z,101513.84
2022-08-01T04:33:02.109Z,101513.63
2022-08-01T04:36:02.268Z,101513.94
2022-08-01T04:38:24.165Z,101521.06
2022-08-01T04:40:53.384Z,101520.81
2022-08-01T04:43:20.866Z,101518.25
2022-08-01T04:45:48.872Z,101528.19
2022-08-01T04:48:22.645Z,101528.78
2022-08-01T04:50:50.536Z,101530.56
2022-08-01T04:53:19.922Z,101533.25
2022-08-01T04:55:47.685Z,101537.41
2022-08-01T04:58:18.724Z,101544.56
2022-08-01T05:00:47.420Z,101545.56
2022-08-01T05:03:14.864Z,101537.50
2022-08-01T05:05:41.868Z,101549.06
2022-08-01T05:08:08.864Z,101548.53
2022-08-01T05:10:35.991Z,101557.50
2022-08-01T05:13:03.205Z,101558.59
2022-08-01T05:15:30.190Z,101557.16
2022-08-01T05:17:57.710Z,101559.75
2022-08-01T05:20:24.904Z,101560.53
2022-08-01T05:22:51.889Z,101562.78
2022-08-01T05:25:20.228Z,101559.84
2022-08-01T05:28:01.047Z,101566.16
2022-08-01T05:30:28.088Z,101569.25
2022-08-01T05:32:55.088Z,101570.75
2022-08-01T05:35:24.576Z,101565.41
2022-08-01T05:38:12.638Z,101568.88
2022-08-01T05:40:42.347Z,101569.50
2022-08-01T05:43:09.398Z,101576.19
2022-08-01T05:45:36.437Z,101580.38
2022-08-01T05:48:03.646Z,101563.63
2022-08-01T05:50:30.633Z,101565.13
2022-08-01T05:52:57.609Z,101567.41
2022-08-01T05:55:24.577Z,101561.19
2022-08-01T05:57:51.619Z,101562.56
2022-08-01T06:00:18.901Z,101560.91
2022-08-01T06:02:46.169Z,101543.94
2022-08-01T06:05:13.776Z,101544.50
2022-08-01T06:07:41.596Z,101550.09
2022-08-01T06:10:09.785Z,101541.97
2022-08-01T06:12:37.717Z,101549.41
2022-08-01T06:15:06.733Z,101542.03
2022-08-01T06:17:33.843Z,101545.44
2022-08-01T06:20:00.978Z,101535.97
2022-08-01T06:22:28.083Z,101539.00
2022-08-01T06:24:55.263Z,101532.56
2022-08-01T06:27:22.902Z,101526.59
2022-08-01T06:29:51.408Z,101537.28
2022-08-01T06:32:27.371Z,101532.34
2022-08-01T06:34:56.224Z,101548.16
2022-08-01T06:37:24.027Z,101540.25
2022-08-01T06:39:51.185Z,101544.44
2022-08-01T06:42:18.769Z,101548.72
2022-08-01T06:44:46.289Z,101557.59
2022-08-01T06:47:13.700Z,101560.69
2022-08-01T06:49:40.869Z,101558.47
2022-08-01T06:52:08.433Z,101559.16
2022-08-01T06:54:35.800Z,101563.81
2022-08-01T06:57:06.719Z,101564.75
2022-08-01T06:59:33.945Z,101562.34
2022-08-01T07:02:02.467Z,101556.88
2022-08-01T07:04:29.615Z,101563.31
2022-08-01T07:06:57.938Z,101556.88
2022-08-01T07:09:25.119Z,101558.72
2022-08-01T07:11:53.445Z,101556.09
2022-08-01T07:14:21.294Z,101560.31
2022-08-01T07:19:15.714Z,101554.81
2022-08-01T07:21:42.910Z,101551.19
2022-08-01T07:24:15.383Z,101555.69
2022-08-01T07:26:54.087Z,101560.81
2022-08-01T07:29:26.234Z,101560.84
2022-08-01T07:31:55.727Z,101557.31
2022-08-01T07:34:24.686Z,101566.13
2022-08-01T07:36:53.339Z,101562.44
2022-08-01T07:39:21.028Z,101566.06
2022-08-01T07:42:04.631Z,101572.91
2022-08-01T07:44:36.132Z,101570.31
2022-08-01T07:47:03.947Z,101583.34
2022-08-01T07:49:33.798Z,101569.16
2022-08-01T07:52:04.643Z,101581.81
2022-08-01T07:54:35.430Z,101579.88
2022-08-01T07:57:04.216Z,101576.69
2022-08-01T07:59:31.848Z,101572.19
2022-08-01T08:01:59.119Z,101579.34
2022-08-01T08:04:27.982Z,101580.72
2022-08-01T08:06:55.606Z,101575.75
2022-08-01T08:09:24.156Z,101586.38
2022-08-01T08:11:51.215Z,101590.03
2022-08-01T08:14:19.242Z,101586.91
2022-08-01T08:16:47.097Z,101596.41
2022-08-01T08:19:14.701Z,101584.59
2022-08-01T08:21:42.161Z,101588.84
2022-08-01T08:24:26.600Z,101586.63
2022-08-01T08:27:00.600Z,101595.38
2022-08-01T08:29:30.984Z,101593.97
2022-08-01T08:31:58.858Z,101588.22
2022-08-01T08:34:27.402Z,101591.91
2022-08-01T08:36:56.296Z,101589.44
2022-08-01T08:39:24.285Z,101595.63
2022-08-01T08:41:51.632Z,101587.06
2022-08-01T08:44:21.056Z,101593.19
2022-08-01T08:46:53.140Z,101591.81
2022-08-01T08:49:24.631Z,101588.78
2022-08-01T08:51:53.494Z,101585.09
2022-08-01T08:54:29.173Z,101593.44
2022-08-01T08:57:02.918Z,101592.22
2022-08-01T08:59:30.272Z,101593.06
2022-08-01T09:01:58.958Z,101593.72
2022-08-01T09:04:27.246Z,101593.19
2022-08-01T09:06:55.722Z,101589.56
2022-08-01T09:09:24.700Z,101593.88
2022-08-01T09:11:57.345Z,101607.59
2022-08-01T09:14:36.279Z,101603.50
2022-08-01T09:17:12.744Z,101607.56
2022-08-01T09:19:45.916Z,101606.84
2022-08-01T09:22:22.117Z,101615.78
2022-08-01T09:25:21.641Z,101624.13
2022-08-01T09:28:06.743Z,101614.09
2022-08-01T09:30:40.869Z,101602.25
2022-08-01T09:33:17.760Z,101620.38
2022-08-01T09:35:54.618Z,101609.56
2022-08-01T09:38:24.805Z,101628.91
2022-08-01T09:40:54.837Z,101627.84
2022-08-01T09:43:27.238Z,101621.38
2022-08-01T09:45:55.621Z,101624.28
2022-08-01T09:48:27.818Z,101620.69
2022-08-01T09:51:00.905Z,101621.09
2022-08-01T09:53:51.804Z,101633.03
2022-08-01T09:56:22.683Z,101617.72
2022-08-01T09:58:53.872Z,101620.06
2022-08-01T10:01:25.816Z,101623.13
2022-08-01T10:04:06.690Z,101620.53
2022-08-01T10:06:37.636Z,101613.13
2022-08-01T10:09:05.184Z,101625.16
2022-08-01T10:11:36.076Z,101619.78
2022-08-01T10:14:05.071Z,101626.66
2022-08-01T10:16:35.065Z,101627.44
2022-08-01T10:19:14.621Z,101625.75
2022-08-01T10:21:58.593Z,101610.25
2022-08-01T10:24:30.829Z,101615.28
2022-08-01T10:27:09.147Z,101629.84
2022-08-01T10:30:05.713Z,101627.38
2022-08-01T10:32:39.923Z,101628.53
2022-08-01T10:35:15.654Z,101623.13
2022-08-01T10:37:51.945Z,101625.09
2022-08-01T10:40:37.002Z,101631.50
2022-08-01T10:43:04.685Z,101627.47
2022-08-01T10:45:32.642Z,101626.66
2022-08-01T10:48:21.082Z,101622.66
2022-08-01T10:50:52.485Z,101617.97
2022-08-01T10:53:31.593Z,101607.44
2022-08-01T10:56:13.141Z,101605.59
2022-08-01T10:58:46.878Z,101607.72
2022-08-01T11:01:33.317Z,101608.47
2022-08-01T11:04:03.923Z,101609.88
2022-08-01T11:06:34.291Z,101608.19
2022-08-01T11:09:22.030Z,101603.81
2022-08-01T11:12:06.285Z,101620.34
2022-08-01T11:14:55.262Z,101623.31
2022-08-01T11:17:48.917Z,101634.28
2022-08-01T11:20:25.172Z,101606.38
2022-08-01T11:23:03.359Z,101612.97
2022-08-01T11:25:58.179Z,101610.75
2022-08-01T11:28:35.608Z,101612.63
2022-08-01T11:31:10.905Z,101620.38
2022-08-01T11:33:47.146Z,101622.56
2022-08-01T11:36:15.245Z,101635.09
2022-08-01T11:38:45.970Z,101631.44
2022-08-01T11:41:37.510Z,101628.69
2022-08-01T11:44:12.131Z,101631.59
2022-08-01T11:47:08.588Z,101646.25
2022-08-01T11:49:49.903Z,101643.59
2022-08-01T11:52:26.194Z,101636.47
2022-08-01T11:55:10.493Z,101642.72
2022-08-01T11:57:39.484Z,101647.66
2022-08-01T12:00:15.470Z,101643.41
2022-08-01T12:02:47.206Z,101651.38
2022-08-01T12:05:19.267Z,101649.72
2022-08-01T12:07:50.506Z,101665.50
2022-08-01T12:10:25.009Z,101669.28
2022-08-01T12:13:00.396Z,101666.03
2022-08-01T12:15:34.235Z,101658.66
2022-08-01T12:18:05.670Z,101655.78
2022-08-01T12:20:42.784Z,101668.59
2022-08-01T12:23:22.124Z,101648.25
2022-08-01T12:25:53.285Z,101662.66
2022-08-01T12:28:20.338Z,101670.16
2022-08-01T12:30:49.767Z,101662.56
2022-08-01T12:33:20.732Z,101675.53
2022-08-01T12:35:48.654Z,101677.22
2022-08-01T12:38:23.325Z,101676.34
2022-08-01T12:40:53.629Z,101672.91
2022-08-01T12:43:27.940Z,101670.09
2022-08-01T12:45:59.427Z,101679.25
2022-08-01T12:48:27.779Z,101676.53
2022-08-01T12:50:58.880Z,101677.47
2022-08-01T12:53:41.184Z,101685.69
2022-08-01T12:56:13.476Z,101681.75
2022-08-01T12:58:40.699Z,101671.31
2022-08-01T13:01:11.544Z,101670.47
2022-08-01T13:03:41.534Z,101674.03
2022-08-01T13:06:17.644Z,101678.66
2022-08-01T13:08:46.613Z,101672.47
2022-08-01T13:11:17.735Z,101669.34
2022-08-01T13:13:50.718Z,101665.88
2022-08-01T13:16:49.155Z,101667.78
2022-08-01T13:19:15.380Z,101663.09
2022-08-01T13:21:58.455Z,101676.81
2022-08-01T13:24:30.721Z,101665.88
2022-08-01T13:27:05.080Z,101661.44
2022-08-01T13:29:39.599Z,101663.06
2022-08-01T13:32:28.691Z,101668.41
2022-08-01T13:35:09.786Z,101662.75
2022-08-01T13:37:42.488Z,101662.59
2022-08-01T13:40:12.822Z,101660.34
2022-08-01T13:42:40.142Z,101666.91
2022-08-01T13:45:14.311Z,101668.50
2022-08-01T13:48:04.148Z,101673.56
2022-08-01T13:50:33.423Z,101663.03
2022-08-01T13:53:00.615Z,101657.88
2022-08-01T13:55:32.374Z,101658.25
2022-08-01T13:58:01.564Z,101659.78
2022-08-01T14:00:28.736Z,101657.00
2022-08-01T14:02:55.743Z,101659.00
2022-08-01T14:05:22.821Z,101659.47
2022-08-01T14:07:49.884Z,101653.44
2022-08-01T14:10:24.602Z,101661.16
2022-08-01T14:12:51.753Z,101666.22
2022-08-01T14:15:38.712Z,101652.75
2022-08-01T14:18:09.301Z,101659.19
2022-08-01T14:20:38.892Z,101668.16
2022-08-01T14:23:09.012Z,101670.22
2022-08-01T14:26:03.262Z,101664.28
2022-08-01T14:28:29.583Z,101659.53
2022-08-01T14:30:58.841Z,101673.25
2022-08-01T14:33:29.317Z,101665.34
2022-08-01T14:36:06.255Z,101669.53
2022-08-01T14:38:46.436Z,101672.53
2022-08-01T14:41:15.666Z,101678.94
2022-08-01T14:43:43.413Z,101672.66
2022-08-01T14:46:10.997Z,101672.75
2022-08-01T14:48:38.501Z,101672.63
2022-08-01T14:51:08.090Z,101664.44
2022-08-01T14:53:38.951Z,101667.69
2022-08-01T14:56:07.174Z,101671.97
2022-08-01T14:58:35.773Z,101668.69
2022-08-01T15:01:03.039Z,101657.84
2022-08-01T15:03:30.096Z,101656.25
2022-08-01T15:05:57.175Z,101649.53
2022-08-01T15:08:24.384Z,101655.50
2022-08-01T15:10:51.564Z,101651.56
2022-08-01T15:13:18.594Z,101657.59
2022-08-01T15:15:45.858Z,101661.09
2022-08-01T15:18:12.935Z,101658.97
2022-08-01T15:20:40.045Z,101668.69
2022-08-01T15:23:07.289Z,101652.00
2022-08-01T15:25:40.414Z,101651.75
2022-08-01T15:28:10.832Z,101647.13
2022-08-01T15:30:38.560Z,101661.81
2022-08-01T15:33:06.219Z,101664.16
2022-08-01T15:38:17.999Z,101651.84
2022-08-01T15:40:45.042Z,101674.94
2022-08-01T15:43:15.633Z,101668.59
2022-08-01T15:45:47.869Z,101674.00
2022-08-01T15:48:17.846Z,101676.06
2022-08-01T15:50:45.332Z,101682.00
2022-08-01T15:53:12.888Z,101678.06
2022-08-01T15:55:40.298Z,101677.63
2022-08-01T15:58:08.169Z,101677.47
2022-08-01T16:00:39.086Z,101681.16
2022-08-01T16:03:08.555Z,101687.13
2022-08-01T16:05:41.145Z,101685.63
2022-08-01T16:08:12.893Z,101690.88
2022-08-01T16:10:40.824Z,101686.19
2022-08-01T16:13:11.284Z,101679.25
2022-08-01T16:15:41.987Z,101681.00
2022-08-01T16:18:18.165Z,101683.41
2022-08-01T16:20:46.188Z,101682.50
2022-08-01T16:23:15.474Z,101675.38
2022-08-01T16:25:44.577Z,101676.31
2022-08-01T16:28:14.077Z,101673.81
2022-08-01T16:30:48.585Z,101671.09
2022-08-01T16:33:49.354Z,101666.59
2022-08-01T16:36:17.521Z,101663.94
2022-08-01T16:38:45.704Z,101661.38
2022-08-01T16:41:19.592Z,101664.28
2022-08-01T16:43:53.070Z,101671.69
2022-08-01T16:46:26.815Z,101666.03
2022-08-01T16:48:54.789Z,101655.88
2022-08-01T16:51:22.060Z,101656.00
2022-08-01T16:53:49.276Z,101654.25
2022-08-01T16:56:16.562Z,101666.34
2022-08-01T16:58:49.798Z,101662.88
2022-08-01T17:02:03.313Z,101659.31
2022-08-01T17:04:16.340Z,101662.47
2022-08-01T17:06:52.587Z,101663.81
2022-08-01T17:09:19.839Z,101654.66
2022-08-01T17:11:46.890Z,101652.59
2022-08-01T17:14:15.246Z,101669.31
2022-08-01T17:16:42.874Z,101664.81
2022-08-01T17:19:10.225Z,101663.84
2022-08-01T17:21:41.193Z,101673.72
2022-08-01T17:24:09.551Z,101671.50
2022-08-01T17:26:39.423Z,101679.88
2022-08-01T17:29:06.766Z,101676.47
2022-08-01T17:31:37.066Z,101673.09
2022-08-01T17:34:10.610Z,101682.56
2022-08-01T17:36:47.852Z,101670.28
2022-08-01T17:39:21.866Z,101670.88
2022-08-01T17:41:50.915Z,101686.16
2022-08-01T17:44:18.162Z,101669.28
2022-08-01T17:46:46.989Z,101673.84
2022-08-01T17:49:14.677Z,101668.25
2022-08-01T17:51:41.856Z,101669.84
2022-08-01T17:54:09.423Z,101670.34
2022-08-01T17:56:39.994Z,101682.22
2022-08-01T17:59:09.957Z,101681.81
2022-08-01T18:01:37.237Z,101680.50
2022-08-01T18:04:12.460Z,101681.34
2022-08-01T18:06:39.634Z,101671.31
2022-08-01T18:09:25.652Z,101656.72
2022-08-01T18:11:52.951Z,101652.00
2022-08-01T18:14:20.785Z,101653.78
2022-08-01T18:17:07.952Z,101645.03
2022-08-01T18:19:39.328Z,101649.41
2022-08-01T18:22:30.221Z,101656.38
2022-08-01T18:24:54.151Z,101654.03
2022-08-01T18:27:21.208Z,101653.16
2022-08-01T18:29:48.784Z,101658.31
2022-08-01T18:32:16.206Z,101666.56
2022-08-01T18:34:43.184Z,101667.69
2022-08-01T18:37:13.486Z,101665.50
2022-08-01T18:39:43.755Z,101669.22
2022-08-01T18:42:11.399Z,101676.50
2022-08-01T18:44:38.406Z,101664.72
2022-08-01T18:47:05.881Z,101665.25
2022-08-01T18:49:33.263Z,101671.16
2022-08-01T18:52:00.436Z,101668.97
2022-08-01T18:54:27.613Z,101665.34
2022-08-01T18:56:54.632Z,101670.31
2022-08-01T18:59:21.702Z,101676.25
2022-08-01T19:01:48.892Z,101666.63
2022-08-01T19:04:16.116Z,101670.81
2022-08-01T19:06:43.324Z,101665.84
2022-08-01T19:09:14.590Z,101668.81
2022-08-01T19:11:47.672Z,101675.16
2022-08-01T19:14:14.704Z,101661.94
2022-08-01T19:16:41.754Z,101669.06
2022-08-01T19:19:11.972Z,101659.66
2022-08-01T19:21:44.795Z,101664.94
2022-08-01T19:24:23.502Z,101668.00
2022-08-01T19:26:57.716Z,101671.91
2022-08-01T19:29:35.788Z,101679.94
2022-08-01T19:32:10.466Z,101680.31
2022-08-01T19:34:54.646Z,101677.38
2022-08-01T19:37:26.998Z,101686.47
2022-08-01T19:39:55.050Z,101691.31
2022-08-01T19:42:24.926Z,101704.28
2022-08-01T19:44:52.735Z,101703.34
2022-08-01T19:47:19.919Z,101705.69
2022-08-01T19:49:48.075Z,101706.56
2022-08-01T19:52:19.279Z,101705.69
2022-08-01T19:54:47.586Z,101707.69
2022-08-01T19:57:16.146Z,101707.25
2022-08-01T19:59:47.257Z,101707.31
2022-08-01T20:02:21.320Z,101704.47
2022-08-01T20:04:49.241Z,101709.75
2022-08-01T20:07:16.545Z,101705.59
2022-08-01T20:09:48.407Z,101711.41
2022-08-01T20:12:15.636Z,101714.59
2022-08-01T20:14:43.837Z,101705.16
2022-08-01T20:17:11.296Z,101711.38
2022-08-01T20:19:38.601Z,101710.75
2022-08-01T20:22:07.888Z,101713.22
2022-08-01T20:24:44.799Z,101706.22
2022-08-01T20:27:13.206Z,101709.53
2022-08-01T20:29:41.000Z,101711.28
2022-08-01T20:32:09.083Z,101707.94
2022-08-01T20:34:38.957Z,101711.47
2022-08-01T20:37:12.483Z,101707.50
2022-08-01T20:39:43.874Z,101712.03
2022-08-01T20:42:12.200Z,101710.38
2022-08-01T20:44:39.925Z,101715.13
2022-08-01T20:47:06.931Z,101715.00
2022-08-01T20:49:37.747Z,101700.44
2022-08-01T20:52:11.829Z,101709.50
2022-08-01T20:54:43.059Z,101712.59
2022-08-01T20:57:23.469Z,101722.97
2022-08-01T21:00:09.360Z,101718.47
2022-08-01T21:03:11.930Z,101712.59
2022-08-01T21:05:58.745Z,101712.78
2022-08-01T21:08:41.675Z,101716.16
2022-08-01T21:11:19.795Z,101705.16
2022-08-01T21:13:49.181Z,101716.00
2022-08-01T21:16:28.631Z,101717.03
2022-08-01T21:19:19.737Z,101718.81
2022-08-01T21:22:27.250Z,101720.34
2022-08-01T21:25:00.019Z,101732.50
2022-08-01T21:27:32.858Z,101725.38
2022-08-01T21:30:07.177Z,101724.63
2022-08-01T21:32:35.744Z,101725.81
2022-08-01T21:35:05.516Z,101727.66
2022-08-01T21:37:44.064Z,101725.75
2022-08-01T21:40:11.337Z,101720.53
2022-08-01T21:42:40.242Z,101716.84
2022-08-01T21:45:09.803Z,101729.72
2022-08-01T21:47:38.072Z,101729.50
2022-08-01T21:50:09.466Z,101716.69
2022-08-01T21:52:45.442Z,101722.25
2022-08-01T21:55:34.811Z,101722.47
2022-08-01T21:58:29.986Z,101717.94
2022-08-01T22:01:09.293Z,101721.53
2022-08-01T22:03:51.932Z,101712.44
2022-08-01T22:06:23.159Z,101722.38
2022-08-01T22:08:59.800Z,101707.41
2022-08-01T22:11:30.737Z,101708.19
2022-08-01T22:14:04.932Z,101714.34
2022-08-01T22:16:33.516Z,101720.06
2022-08-01T22:19:04.260Z,101724.72
2022-08-01T22:21:33.959Z,101729.06
2022-08-01T22:24:03.133Z,101721.06
2022-08-01T22:26:31.807Z,101719.31
2022-08-01T22:29:00.177Z,101726.34
2022-08-01T22:31:27.862Z,101727.25
2022-08-01T22:33:55.582Z,101722.34
2022-08-01T22:36:23.440Z,101722.50
2022-08-01T22:38:50.805Z,101717.88
2022-08-01T22:41:25.255Z,101717.75
2022-08-01T22:44:08.237Z,101718.91
2022-08-01T22:46:58.874Z,101714.53
2022-08-01T22:49:36.011Z,101710.25
2022-08-01T22:52:20.301Z,101709.16
2022-08-01T22:54:58.847Z,101710.09
2022-08-01T22:57:50.961Z,101699.53
2022-08-01T23:00:18.947Z,101708.25
2022-08-01T23:02:58.342Z,101701.22
2022-08-01T23:05:29.299Z,101703.00
2022-08-01T23:07:58.261Z,101706.72
2022-08-01T23:10:26.643Z,101705.00
2022-08-01T23:12:55.428Z,101708.50
2022-08-01T23:15:23.937Z,101710.22
2022-08-01T23:17:51.942Z,101712.03
2022-08-01T23:20:19.180Z,101711.84
2022-08-01T23:22:47.044Z,101712.94
2022-08-01T23:25:16.116Z,101723.72
2022-08-01T23:27:55.766Z,101714.06
2022-08-01T23:30:35.181Z,101717.75
2022-08-01T23:33:03.320Z,101715.09
2022-08-01T23:35:31.145Z,101701.75
2022-08-01T23:38:02.552Z,101695.47
2022-08-01T23:40:33.002Z,101689.38
2022-08-01T23:43:02.555Z,101684.91
2022-08-01T23:46:02.015Z,101680.47
2022-08-01T23:48:17.487Z,101685.75
2022-08-01T23:50:44.560Z,101683.03
2022-08-01T23:53:12.074Z,101679.47
2022-08-01T23:55:40.679Z,101691.97
2022-08-01T23:58:11.590Z,101691.97
